Time;durP1;ratioP1;P1;durP2;ratioP2;P2;SDS_P1;SDS_P2;PMS_P1;PMS_P2;Temp;Humidity;BMP_temperature;BMP_pressure;BME280_temperature;BME280_humidity;BME280_pressure;Samples;Min_cycle;Max_cycle;Signal;HPM_P1;HPM_P2
2021/12/16 00:02:36;;;;;;;;;79.75;68.00;;;;;;;;5101051;27;45792;-79
2021/12/16 00:07:46;;;;;;;;;74.75;62.25;;;;;;;;5101286;27;45257;-80
2021/12/16 00:10:24;;;;;;;;;76.75;66.00;;;;;;;;5101294;27;45256;-80
2021/12/16 00:34:14;;;;;;;;;65.25;53.25;;;;;;;;5078937;27;45371;-80
2021/12/16 00:36:40;;;;;;;;;64.25;51.25;;;;;;;;5099492;27;45233;-80
2021/12/16 00:39:09;;;;;;;;;63.75;50.50;;;;;;;;5101015;27;45156;-80
2021/12/16 00:41:36;;;;;;;;;64.50;51.00;;;;;;;;5089908;27;45469;-79
2021/12/16 00:44:14;;;;;;;;;59.50;48.25;;;;;;;;5078751;28;47954;-80
2021/12/16 00:54:39;;;;;;;;;60.25;49.00;;;;;;;;5079916;28;45881;-80
2021/12/16 00:57:11;;;;;;;;;56.25;45.25;;;;;;;;5078473;28;45455;-80
2021/12/16 00:59:39;;;;;;;;;51.75;44.00;;;;;;;;5080315;27;45144;-80
2021/12/16 01:02:28;;;;;;;;;55.00;44.50;;;;;;;;5079796;27;45344;-79
2021/12/16 01:49:03;;;;;;;;;67.25;53.75;;;;;;;;5062302;28;45478;-80
2021/12/16 01:50:59;;;;;;;;;70.50;56.00;;;;;;;;5064540;28;45340;-79
2021/12/16 01:56:03;;;;;;;;;72.25;60.00;;;;;;;;5062698;28;45472;-80
2021/12/16 01:58:31;;;;;;;;;65.25;52.50;;;;;;;;5062477;28;46329;-79
2021/12/16 02:01:16;;;;;;;;;66.75;54.25;;;;;;;;5062450;28;45418;-79
2021/12/16 02:03:47;;;;;;;;;68.50;55.00;;;;;;;;5062454;28;45515;-79
2021/12/16 02:08:46;;;;;;;;;70.75;55.00;;;;;;;;5062242;28;46114;-79
2021/12/16 02:33:10;;;;;;;;;68.50;54.50;;;;;;;;5062131;28;45295;-80
2021/12/16 02:35:44;;;;;;;;;67.75;55.00;;;;;;;;5062422;28;45418;-79
2021/12/16 02:38:12;;;;;;;;;64.75;53.00;;;;;;;;5077635;28;47523;-80
2021/12/16 02:40:38;;;;;;;;;64.50;51.25;;;;;;;;5099722;27;48197;-80
2021/12/16 02:43:37;;;;;;;;;66.25;53.50;;;;;;;;5101237;27;45256;-80
2021/12/16 02:48:39;;;;;;;;;68.00;54.75;;;;;;;;5102486;27;45382;-80
2021/12/16 02:51:12;;;;;;;;;67.25;54.50;;;;;;;;5101319;27;47445;-80
2021/12/16 02:53:42;;;;;;;;;67.50;54.25;;;;;;;;5101908;27;45329;-80
2021/12/16 02:56:07;;;;;;;;;65.75;53.75;;;;;;;;5101509;27;45226;-80
2021/12/16 02:58:34;;;;;;;;;68.25;54.50;;;;;;;;5100785;27;45443;-79
2021/12/16 03:01:04;;;;;;;;;67.50;51.50;;;;;;;;5102304;27;46609;-79
2021/12/16 03:03:29;;;;;;;;;64.75;52.25;;;;;;;;5102435;27;45193;-80
2021/12/16 03:05:55;;;;;;;;;66.75;54.25;;;;;;;;5101537;27;45175;-79
2021/12/16 03:08:20;;;;;;;;;65.50;53.50;;;;;;;;5102625;27;45483;-80
2021/12/16 03:11:07;;;;;;;;;65.25;52.50;;;;;;;;5100926;27;48274;-80
2021/12/16 03:14:06;;;;;;;;;65.00;52.50;;;;;;;;5102200;27;45287;-80
2021/12/16 03:19:18;;;;;;;;;62.50;51.25;;;;;;;;5102078;27;45561;-79
2021/12/16 03:21:48;;;;;;;;;61.00;49.25;;;;;;;;5101850;27;45621;-79
2021/12/16 03:34:57;;;;;;;;;60.50;49.25;;;;;;;;5068977;27;45274;-80
2021/12/16 03:37:24;;;;;;;;;64.00;52.00;;;;;;;;5102120;27;45297;-80
2021/12/16 03:39:49;;;;;;;;;66.75;53.25;;;;;;;;5100459;27;45971;-79
2021/12/16 03:42:17;;;;;;;;;61.00;49.25;;;;;;;;5083780;27;47497;-79
2021/12/16 03:44:54;;;;;;;;;58.50;47.00;;;;;;;;5080154;28;45250;-80
2021/12/16 03:47:21;;;;;;;;;62.00;50.50;;;;;;;;5079830;28;45459;-80
2021/12/16 03:49:46;;;;;;;;;63.50;51.00;;;;;;;;5079883;28;46359;-80
2021/12/16 03:52:12;;;;;;;;;60.75;50.25;;;;;;;;5080899;28;45348;-80
2021/12/16 03:54:42;;;;;;;;;63.75;50.25;;;;;;;;5081277;27;45221;-80
2021/12/16 03:57:12;;;;;;;;;45.75;37.75;;;;;;;;5081266;27;45205;-80
2021/12/16 03:59:38;;;;;;;;;59.25;48.25;;;;;;;;5081253;27;45279;-80
2021/12/16 04:02:06;;;;;;;;;61.50;49.25;;;;;;;;5079445;28;48365;-80
2021/12/16 04:04:32;;;;;;;;;58.75;47.25;;;;;;;;5078644;28;45221;-80
2021/12/16 04:06:57;;;;;;;;;64.00;50.00;;;;;;;;5080731;28;45286;-80
2021/12/16 04:09:23;;;;;;;;;57.50;47.75;;;;;;;;5079510;28;46343;-80
2021/12/16 04:11:56;;;;;;;;;60.75;50.00;;;;;;;;5080750;27;46591;-80
2021/12/16 04:14:21;;;;;;;;;57.00;46.75;;;;;;;;5080841;27;45302;-80
2021/12/16 04:16:52;;;;;;;;;59.25;48.50;;;;;;;;5080743;27;45274;-79
2021/12/16 04:19:19;;;;;;;;;58.25;46.25;;;;;;;;5080742;27;47414;-79
2021/12/16 04:21:47;;;;;;;;;61.00;49.00;;;;;;;;5079164;28;47311;-80
2021/12/16 04:24:12;;;;;;;;;56.75;46.75;;;;;;;;5080683;27;45216;-80
2021/12/16 04:26:39;;;;;;;;;59.50;47.75;;;;;;;;5079148;28;45221;-80
2021/12/16 04:29:05;;;;;;;;;55.75;46.75;;;;;;;;5080309;27;45329;-80
2021/12/16 04:31:31;;;;;;;;;55.00;45.75;;;;;;;;5080310;27;45297;-80
2021/12/16 04:33:56;;;;;;;;;55.75;47.25;;;;;;;;5080445;27;45248;-80
2021/12/16 04:36:21;;;;;;;;;60.50;47.50;;;;;;;;5080657;28;45310;-80
2021/12/16 04:38:47;;;;;;;;;60.25;48.25;;;;;;;;5080332;28;45496;-79
2021/12/16 04:41:13;;;;;;;;;54.25;45.00;;;;;;;;5087667;27;45344;-80
2021/12/16 04:43:49;;;;;;;;;55.25;45.50;;;;;;;;5099346;27;45603;-80
2021/12/16 04:46:17;;;;;;;;;56.00;46.00;;;;;;;;5100779;27;45448;-80
2021/12/16 04:48:43;;;;;;;;;55.33;46.00;;;;;;;;5099118;27;47148;-80
2021/12/16 04:51:09;;;;;;;;;62.75;50.50;;;;;;;;5100584;27;47419;-80
2021/12/16 04:53:36;;;;;;;;;64.00;51.00;;;;;;;;5099270;27;45380;-80
2021/12/16 04:56:01;;;;;;;;;65.00;52.25;;;;;;;;5100788;27;45360;-80
2021/12/16 04:58:27;;;;;;;;;67.00;53.75;;;;;;;;5098985;27;46081;-80
2021/12/16 05:00:53;;;;;;;;;64.25;52.75;;;;;;;;5100437;27;45328;-79
2021/12/16 05:03:18;;;;;;;;;64.50;52.25;;;;;;;;5098836;27;45827;-80
2021/12/16 05:05:44;;;;;;;;;66.75;53.00;;;;;;;;5099361;27;45306;-80
2021/12/16 05:08:09;;;;;;;;;62.75;51.25;;;;;;;;5099054;27;46234;-79
2021/12/16 05:10:35;;;;;;;;;64.00;51.25;;;;;;;;5100324;27;46460;-79
2021/12/16 05:13:01;;;;;;;;;63.25;50.25;;;;;;;;5098808;27;45324;-79
2021/12/16 05:15:30;;;;;;;;;63.75;51.75;;;;;;;;5100597;27;45239;-79
2021/12/16 05:17:58;;;;;;;;;59.25;47.75;;;;;;;;5104231;27;45282;-79
2021/12/16 05:20:25;;;;;;;;;57.25;46.50;;;;;;;;5103872;27;45372;-79
2021/12/16 05:25:49;;;;;;;;;53.75;44.25;;;;;;;;5103826;27;45210;-79
2021/12/16 05:28:16;;;;;;;;;59.00;49.00;;;;;;;;5103595;27;45299;-79
2021/12/16 05:30:42;;;;;;;;;54.00;46.00;;;;;;;;5102196;27;48272;-79
2021/12/16 05:33:07;;;;;;;;;52.25;42.75;;;;;;;;5102159;27;45352;-78
2021/12/16 05:35:33;;;;;;;;;55.25;44.50;;;;;;;;5102378;27;45426;-79
2021/12/16 05:37:58;;;;;;;;;54.25;43.50;;;;;;;;5103702;27;45494;-79
2021/12/16 05:40:25;;;;;;;;;57.00;46.25;;;;;;;;5101601;27;46446;-79
2021/12/16 05:43:01;;;;;;;;;50.00;42.00;;;;;;;;5082964;27;45253;-79
2021/12/16 05:45:27;;;;;;;;;58.50;45.75;;;;;;;;5083226;27;45309;-79
2021/12/16 05:47:53;;;;;;;;;60.25;47.00;;;;;;;;5081296;28;47327;-79
2021/12/16 05:50:19;;;;;;;;;53.50;43.75;;;;;;;;5082879;27;45482;-79
2021/12/16 05:52:44;;;;;;;;;52.00;43.75;;;;;;;;5083039;27;45345;-78
2021/12/16 05:55:11;;;;;;;;;53.25;43.25;;;;;;;;5083355;28;45267;-79
2021/12/16 05:57:36;;;;;;;;;53.75;44.50;;;;;;;;5081310;28;47206;-79
2021/12/16 06:00:03;;;;;;;;;49.00;40.75;;;;;;;;5080975;28;48071;-81
2021/12/16 06:02:28;;;;;;;;;52.00;43.50;;;;;;;;5082389;27;45325;-80
2021/12/16 06:04:53;;;;;;;;;52.00;44.50;;;;;;;;5081381;28;45343;-77
2021/12/16 06:07:19;;;;;;;;;53.00;44.75;;;;;;;;5082604;28;45484;-78
2021/12/16 06:09:45;;;;;;;;;54.75;45.50;;;;;;;;5082621;28;45680;-77
2021/12/16 06:12:10;;;;;;;;;55.25;45.25;;;;;;;;5081066;28;45392;-79
2021/12/16 06:22:56;;;;;;;;;56.75;46.75;;;;;;;;5082356;28;45360;-81
2021/12/16 06:28:06;;;;;;;;;58.25;45.00;;;;;;;;5080815;28;45335;-82
2021/12/16 06:30:35;;;;;;;;;54.25;45.00;;;;;;;;5082237;27;45387;-82
2021/12/16 06:33:01;;;;;;;;;55.25;44.25;;;;;;;;5080749;28;45256;-81
2021/12/16 06:35:27;;;;;;;;;56.75;47.00;;;;;;;;5082282;27;45345;-82
2021/12/16 06:37:52;;;;;;;;;52.25;43.75;;;;;;;;5080779;28;46383;-81
2021/12/16 06:40:17;;;;;;;;;57.00;46.25;;;;;;;;5081963;27;45414;-84
2021/12/16 06:42:43;;;;;;;;;56.25;46.00;;;;;;;;5100723;27;45270;-80
2021/12/16 06:45:14;;;;;;;;;52.50;43.00;;;;;;;;5101143;27;45258;-80
2021/12/16 06:50:07;;;;;;;;;53.25;43.25;;;;;;;;5102156;27;45337;-80
2021/12/16 06:52:38;;;;;;;;;56.25;47.25;;;;;;;;5101377;27;45297;-78
2021/12/16 06:55:20;;;;;;;;;53.50;43.25;;;;;;;;5081799;27;45338;-78
2021/12/16 06:57:52;;;;;;;;;54.00;45.75;;;;;;;;5081198;27;45462;-78
2021/12/16 07:00:29;;;;;;;;;56.00;45.75;;;;;;;;5079715;28;46719;-78
2021/12/16 07:03:01;;;;;;;;;56.75;46.50;;;;;;;;5079374;28;45505;-78
2021/12/16 07:05:30;;;;;;;;;51.25;43.25;;;;;;;;5081932;27;45325;-80
2021/12/16 07:07:55;;;;;;;;;56.50;44.75;;;;;;;;5080149;28;46264;-79
2021/12/16 07:10:21;;;;;;;;;54.75;43.75;;;;;;;;5079966;28;48262;-79
2021/12/16 07:12:48;;;;;;;;;57.25;46.00;;;;;;;;5080139;28;45356;-79
2021/12/16 07:15:16;;;;;;;;;57.25;45.75;;;;;;;;5080517;28;45382;-81
2021/12/16 07:17:41;;;;;;;;;62.50;48.00;;;;;;;;5081268;27;45285;-79
2021/12/16 07:20:08;;;;;;;;;53.50;44.00;;;;;;;;5081303;27;46669;-78
2021/12/16 07:22:34;;;;;;;;;53.25;44.00;;;;;;;;5081556;28;45468;-79
2021/12/16 07:24:59;;;;;;;;;56.50;46.00;;;;;;;;5081399;27;45270;-79
2021/12/16 07:27:24;;;;;;;;;54.75;45.25;;;;;;;;5079739;28;47292;-79
2021/12/16 07:29:50;;;;;;;;;51.25;43.00;;;;;;;;5081160;27;45529;-77
2021/12/16 07:32:15;;;;;;;;;52.25;43.50;;;;;;;;5081240;27;45792;-77
2021/12/16 07:34:40;;;;;;;;;52.75;44.00;;;;;;;;5081512;28;45290;-77
2021/12/16 07:37:08;;;;;;;;;48.75;40.50;;;;;;;;5081258;27;45313;-76
2021/12/16 07:39:37;;;;;;;;;50.75;43.50;;;;;;;;5079662;28;48002;-77
2021/12/16 07:42:04;;;;;;;;;52.50;43.25;;;;;;;;5095095;27;45162;-77
2021/12/16 07:44:29;;;;;;;;;47.25;40.50;;;;;;;;5101688;27;45515;-74
2021/12/16 07:46:56;;;;;;;;;55.00;46.00;;;;;;;;5101180;27;45579;-74
2021/12/16 07:49:23;;;;;;;;;64.75;51.25;;;;;;;;5099860;27;48133;-75
2021/12/16 07:51:49;;;;;;;;;58.25;46.50;;;;;;;;5099948;27;45326;-74
2021/12/16 07:54:15;;;;;;;;;53.75;44.75;;;;;;;;5101300;27;45473;-75
2021/12/16 07:56:41;;;;;;;;;57.75;46.75;;;;;;;;5101227;27;45441;-74
2021/12/16 07:59:07;;;;;;;;;55.00;45.00;;;;;;;;5101215;27;45547;-73
2021/12/16 08:01:33;;;;;;;;;58.00;47.75;;;;;;;;5099645;27;45231;-74
2021/12/16 08:03:58;;;;;;;;;55.00;44.25;;;;;;;;5099890;27;45322;-76
2021/12/16 08:06:25;;;;;;;;;54.00;43.00;;;;;;;;5101155;27;45312;-76
2021/12/16 08:08:52;;;;;;;;;56.50;46.25;;;;;;;;5099706;27;48273;-76
2021/12/16 08:11:17;;;;;;;;;52.50;43.75;;;;;;;;5099567;27;45863;-76
2021/12/16 08:13:43;;;;;;;;;58.00;47.00;;;;;;;;5099549;27;45369;-76
2021/12/16 08:16:08;;;;;;;;;58.25;48.00;;;;;;;;5099515;27;45378;-76
2021/12/16 08:18:33;;;;;;;;;57.75;46.25;;;;;;;;5100782;27;45865;-77
2021/12/16 08:20:59;;;;;;;;;62.75;50.50;;;;;;;;5101064;27;45352;-77
2021/12/16 08:23:25;;;;;;;;;60.50;48.25;;;;;;;;5101064;27;45282;-77
2021/12/16 08:25:51;;;;;;;;;59.00;47.75;;;;;;;;5096802;27;47268;-77
2021/12/16 08:28:16;;;;;;;;;59.00;49.50;;;;;;;;5100322;27;45517;-77
2021/12/16 08:30:43;;;;;;;;;57.50;47.00;;;;;;;;5098825;27;45239;-77
2021/12/16 08:33:11;;;;;;;;;60.50;48.25;;;;;;;;5099250;27;45324;-76
2021/12/16 08:35:40;;;;;;;;;56.75;47.25;;;;;;;;5100497;27;46356;-76
2021/12/16 08:38:05;;;;;;;;;58.75;47.00;;;;;;;;5100493;27;46458;-77
2021/12/16 08:40:30;;;;;;;;;59.25;48.00;;;;;;;;5100493;27;45459;-77
2021/12/16 08:42:56;;;;;;;;;62.50;48.25;;;;;;;;5099180;27;45277;-76
2021/12/16 08:45:24;;;;;;;;;55.25;44.75;;;;;;;;5100156;27;45231;-77
2021/12/16 08:47:49;;;;;;;;;60.75;47.75;;;;;;;;5099927;27;46255;-78
2021/12/16 08:50:16;;;;;;;;;54.50;46.25;;;;;;;;5100183;27;45404;-77
2021/12/16 08:52:42;;;;;;;;;56.25;46.00;;;;;;;;5100164;27;45252;-77
2021/12/16 08:55:07;;;;;;;;;59.25;48.75;;;;;;;;5100171;27;45527;-77
2021/12/16 08:57:33;;;;;;;;;61.00;48.50;;;;;;;;5100229;27;45452;-77
2021/12/16 08:59:58;;;;;;;;;60.50;48.50;;;;;;;;5099128;27;45361;-77
2021/12/16 09:02:23;;;;;;;;;55.50;46.00;;;;;;;;5098713;27;45407;-77
2021/12/16 09:04:50;;;;;;;;;57.00;45.75;;;;;;;;5100413;27;45381;-78
2021/12/16 09:07:16;;;;;;;;;56.75;46.00;;;;;;;;5100261;27;45337;-77
2021/12/16 09:09:43;;;;;;;;;55.00;44.50;;;;;;;;5097315;27;45581;-77
2021/12/16 09:12:14;;;;;;;;;62.50;49.75;;;;;;;;5098575;27;45595;-77
2021/12/16 09:14:42;;;;;;;;;56.50;47.00;;;;;;;;5099489;27;45283;-77
2021/12/16 09:17:10;;;;;;;;;62.25;48.25;;;;;;;;5098725;27;48036;-77
2021/12/16 09:19:37;;;;;;;;;59.75;47.75;;;;;;;;5098473;27;45796;-77
2021/12/16 09:22:02;;;;;;;;;57.50;47.75;;;;;;;;5098831;27;45329;-77
2021/12/16 09:24:28;;;;;;;;;56.75;45.25;;;;;;;;5098741;27;47098;-77
2021/12/16 09:26:53;;;;;;;;;61.75;49.00;;;;;;;;5098507;27;47497;-77
2021/12/16 09:29:18;;;;;;;;;59.50;47.75;;;;;;;;5100241;27;45442;-77
2021/12/16 09:31:44;;;;;;;;;63.50;49.50;;;;;;;;5100197;27;45383;-77
2021/12/16 09:34:09;;;;;;;;;60.25;49.50;;;;;;;;5098591;27;46014;-78
2021/12/16 09:36:36;;;;;;;;;56.25;46.50;;;;;;;;5099681;27;45418;-80
2021/12/16 09:39:04;;;;;;;;;63.00;49.75;;;;;;;;5099961;27;45336;-75
2021/12/16 09:41:29;;;;;;;;;57.75;48.00;;;;;;;;5090107;27;45579;-75
2021/12/16 09:43:55;;;;;;;;;61.75;49.25;;;;;;;;5079093;27;45462;-78
2021/12/16 09:46:23;;;;;;;;;54.25;45.50;;;;;;;;5079205;27;45460;-78
2021/12/16 09:48:49;;;;;;;;;58.75;47.75;;;;;;;;5079131;27;45307;-79
2021/12/16 09:51:20;;;;;;;;;56.25;45.25;;;;;;;;5077985;28;45315;-77
2021/12/16 09:53:46;;;;;;;;;56.00;45.75;;;;;;;;5079290;28;45285;-77
2021/12/16 09:56:11;;;;;;;;;55.75;45.50;;;;;;;;5077901;28;47048;-79
2021/12/16 09:58:42;;;;;;;;;57.50;46.25;;;;;;;;5079209;28;45297;-72
2021/12/16 10:01:09;;;;;;;;;56.75;45.00;;;;;;;;5079358;28;45195;-74
2021/12/16 10:03:35;;;;;;;;;56.00;44.75;;;;;;;;5081648;27;45390;-74
2021/12/16 10:06:00;;;;;;;;;59.75;47.50;;;;;;;;5082553;27;46489;-74
2021/12/16 10:08:25;;;;;;;;;56.50;46.50;;;;;;;;5082759;27;45333;-73
2021/12/16 10:10:50;;;;;;;;;57.50;45.50;;;;;;;;5081259;28;45360;-74
2021/12/16 10:13:23;;;;;;;;;55.75;46.50;;;;;;;;5081141;28;46986;-73
2021/12/16 10:18:20;;;;;;;;;59.50;48.00;;;;;;;;5082343;27;45364;-74
2021/12/16 10:20:45;;;;;;;;;53.50;43.50;;;;;;;;5082549;27;45230;-74
2021/12/16 10:23:37;;;;;;;;;55.25;44.75;;;;;;;;5080941;28;47437;-74
2021/12/16 10:26:03;;;;;;;;;55.00;44.75;;;;;;;;5079080;28;47203;-71
2021/12/16 10:28:31;;;;;;;;;55.75;45.50;;;;;;;;5080818;28;45564;-71
2021/12/16 10:31:00;;;;;;;;;62.00;49.75;;;;;;;;5081148;28;45240;-71
2021/12/16 10:33:25;;;;;;;;;58.50;48.00;;;;;;;;5082166;27;45469;-72
2021/12/16 10:35:57;;;;;;;;;60.75;48.50;;;;;;;;5082159;28;45428;-73
2021/12/16 10:38:24;;;;;;;;;54.00;44.25;;;;;;;;5082336;27;45315;-72
2021/12/16 10:40:51;;;;;;;;;58.25;46.25;;;;;;;;5085185;27;45315;-75
2021/12/16 10:43:19;;;;;;;;;54.75;44.25;;;;;;;;5100990;27;45916;-75
2021/12/16 10:45:49;;;;;;;;;60.75;47.50;;;;;;;;5102422;27;46380;-75
2021/12/16 10:48:17;;;;;;;;;59.00;47.25;;;;;;;;5102195;27;45378;-75
2021/12/16 10:50:48;;;;;;;;;61.50;48.25;;;;;;;;5102461;27;45281;-75
2021/12/16 10:53:13;;;;;;;;;62.50;50.00;;;;;;;;5102559;27;45587;-77
2021/12/16 10:55:58;;;;;;;;;63.00;50.50;;;;;;;;5100872;27;47229;-79
2021/12/16 10:58:47;;;;;;;;;58.25;48.00;;;;;;;;5102084;27;45214;-80
2021/12/16 11:01:31;;;;;;;;;61.00;46.75;;;;;;;;5092544;27;45425;-80
2021/12/16 11:03:57;;;;;;;;;59.75;48.50;;;;;;;;5102046;27;45453;-80
2021/12/16 11:06:26;;;;;;;;;63.75;50.00;;;;;;;;5100730;27;47109;-79
2021/12/16 11:08:51;;;;;;;;;62.50;49.25;;;;;;;;5100708;27;45290;-79
2021/12/16 11:11:24;;;;;;;;;67.25;52.25;;;;;;;;5102024;27;45249;-78
2021/12/16 11:13:49;;;;;;;;;62.50;49.25;;;;;;;;5101156;27;45293;-78
2021/12/16 11:16:28;;;;;;;;;63.25;49.25;;;;;;;;5102324;27;46210;-77
2021/12/16 11:18:53;;;;;;;;;55.75;45.50;;;;;;;;5100644;27;45295;-78
2021/12/16 11:21:18;;;;;;;;;61.50;49.50;;;;;;;;5102041;27;45274;-78
2021/12/16 11:23:44;;;;;;;;;58.75;47.50;;;;;;;;5102039;27;45386;-78
2021/12/16 11:26:19;;;;;;;;;57.00;46.50;;;;;;;;5101800;27;45439;-77
2021/12/16 11:28:46;;;;;;;;;58.00;47.50;;;;;;;;5100437;27;45329;-81
2021/12/16 11:31:12;;;;;;;;;60.75;50.25;;;;;;;;5101080;27;45599;-79
2021/12/16 11:33:39;;;;;;;;;68.00;55.25;;;;;;;;5101073;27;46371;-78
2021/12/16 11:36:10;;;;;;;;;63.00;49.75;;;;;;;;5103318;27;45529;-77
2021/12/16 11:38:37;;;;;;;;;60.50;48.50;;;;;;;;5100974;27;45368;-76
2021/12/16 11:41:06;;;;;;;;;59.50;47.50;;;;;;;;5095787;27;45332;-81
2021/12/16 11:43:34;;;;;;;;;57.50;46.50;;;;;;;;5079854;28;46609;-77
2021/12/16 11:46:00;;;;;;;;;55.75;45.00;;;;;;;;5081090;27;45530;-76
2021/12/16 11:48:31;;;;;;;;;65.50;53.25;;;;;;;;5082694;27;45327;-79
2021/12/16 11:51:04;;;;;;;;;55.00;44.75;;;;;;;;5085098;27;45208;-79
2021/12/16 11:53:39;;;;;;;;;71.50;56.25;;;;;;;;5081049;27;45965;-77
2021/12/16 11:56:05;;;;;;;;;59.75;46.00;;;;;;;;5080054;28;47391;-78
2021/12/16 11:58:31;;;;;;;;;56.25;45.00;;;;;;;;5081988;27;45195;-78
2021/12/16 12:00:58;;;;;;;;;73.25;57.75;;;;;;;;5081328;27;45206;-80
2021/12/16 12:03:31;;;;;;;;;68.50;55.50;;;;;;;;5079410;28;46240;-82
2021/12/16 12:05:57;;;;;;;;;59.00;47.25;;;;;;;;5080906;28;45347;-80
2021/12/16 12:08:23;;;;;;;;;59.00;47.50;;;;;;;;5080565;27;45216;-81
2021/12/16 12:10:51;;;;;;;;;79.50;69.00;;;;;;;;5100796;27;45241;-81
2021/12/16 12:13:25;;;;;;;;;51.50;43.75;;;;;;;;5099562;27;47108;-80
2021/12/16 12:15:59;;;;;;;;;57.00;47.00;;;;;;;;5099463;27;45721;-81
2021/12/16 12:18:39;;;;;;;;;57.50;45.75;;;;;;;;5100979;27;45505;-83
2021/12/16 12:21:14;;;;;;;;;47.25;39.00;;;;;;;;5101206;27;45512;-78
2021/12/16 12:23:39;;;;;;;;;71.75;58.00;;;;;;;;5101009;27;45328;-76
2021/12/16 12:26:04;;;;;;;;;66.75;52.50;;;;;;;;5099791;27;45313;-76
2021/12/16 12:28:29;;;;;;;;;56.00;45.75;;;;;;;;5099567;27;45263;-76
2021/12/16 12:30:55;;;;;;;;;57.50;46.25;;;;;;;;5100895;27;45302;-76
2021/12/16 12:33:20;;;;;;;;;59.75;46.75;;;;;;;;5099261;27;46909;-76
2021/12/16 12:35:45;;;;;;;;;68.50;52.25;;;;;;;;5099395;27;46160;-76
2021/12/16 12:38:11;;;;;;;;;57.00;44.75;;;;;;;;5100797;27;45308;-76
2021/12/16 12:40:38;;;;;;;;;57.75;46.00;;;;;;;;5099583;27;45625;-77
2021/12/16 12:43:04;;;;;;;;;61.00;48.50;;;;;;;;5100563;27;45450;-79
2021/12/16 12:45:34;;;;;;;;;70.50;55.75;;;;;;;;5099146;27;47793;-79
2021/12/16 12:48:00;;;;;;;;;55.50;44.75;;;;;;;;5100309;27;45273;-79
2021/12/16 12:50:31;;;;;;;;;57.00;46.00;;;;;;;;5100679;27;45305;-77
2021/12/16 12:52:59;;;;;;;;;52.75;43.50;;;;;;;;5100236;27;45428;-77
2021/12/16 12:55:31;;;;;;;;;52.50;43.00;;;;;;;;5098983;27;47534;-77
2021/12/16 12:58:02;;;;;;;;;50.00;41.75;;;;;;;;5100148;27;45347;-77
2021/12/16 13:00:30;;;;;;;;;66.50;51.50;;;;;;;;5100506;27;45276;-80
2021/12/16 13:03:00;;;;;;;;;63.25;50.25;;;;;;;;5099892;27;45373;-79
2021/12/16 13:05:26;;;;;;;;;53.25;44.00;;;;;;;;5100177;27;46669;-79
2021/12/16 13:07:56;;;;;;;;;54.25;43.75;;;;;;;;5098809;27;45378;-79
2021/12/16 13:10:31;;;;;;;;;52.75;43.00;;;;;;;;5095715;27;45740;-80
2021/12/16 13:13:18;;;;;;;;;54.25;43.50;;;;;;;;5097445;27;45376;-80
2021/12/16 13:15:50;;;;;;;;;55.00;43.75;;;;;;;;5098023;27;47577;-80
2021/12/16 13:24:01;;;;;;;;;51.75;42.25;;;;;;;;5100559;27;45545;-76
2021/12/16 13:26:39;;;;;;;;;48.00;40.75;;;;;;;;5100236;27;46724;-77
2021/12/16 13:30:04;;;;;;;;;55.25;45.00;;;;;;;;5100420;27;45837;-76
2021/12/16 13:32:16;;;;;;;;;52.25;43.25;;;;;;;;5099308;27;45526;-80
2021/12/16 13:35:01;;;;;;;;;50.50;42.00;;;;;;;;5104269;27;47028;-78
2021/12/16 13:37:37;;;;;;;;;67.50;52.25;;;;;;;;5101536;27;45352;-79
2021/12/16 13:40:02;;;;;;;;;69.75;54.75;;;;;;;;5102154;27;45184;-77
2021/12/16 13:42:39;;;;;;;;;60.50;48.25;;;;;;;;5101918;27;45293;-77
2021/12/16 13:45:10;;;;;;;;;52.00;42.00;;;;;;;;5103596;27;45215;-77
2021/12/16 13:59:34;;;;;;;;;62.00;50.00;;;;;;;;5102983;27;45712;-77
2021/12/16 14:07:14;;;;;;;;;58.00;46.00;;;;;;;;5103437;27;45980;-80
2021/12/16 14:09:52;;;;;;;;;55.75;44.75;;;;;;;;5103725;27;45357;-80
2021/12/16 14:17:44;;;;;;;;;81.25;71.75;;;;;;;;5102579;27;45450;-78
2021/12/16 14:23:22;;;;;;;;;59.75;44.00;;;;;;;;5102364;27;45304;-77
2021/12/16 14:31:40;;;;;;;;;50.25;41.50;;;;;;;;5102619;27;45671;-75
2021/12/16 14:47:15;;;;;;;;;80.25;69.75;;;;;;;;5081874;27;45251;-80
2021/12/16 14:49:42;;;;;;;;;78.00;67.50;;;;;;;;5081062;27;45248;-80
2021/12/16 14:52:14;;;;;;;;;76.75;66.25;;;;;;;;5080441;28;47386;-79
2021/12/16 14:54:50;;;;;;;;;79.75;72.50;;;;;;;;5081740;27;45357;-80
2021/12/16 14:57:19;;;;;;;;;74.00;61.00;;;;;;;;5080470;28;45291;-80
2021/12/16 14:59:44;;;;;;;;;63.75;51.00;;;;;;;;5080323;28;46342;-80
2021/12/16 15:02:11;;;;;;;;;57.25;44.75;;;;;;;;5080003;28;48150;-80
2021/12/16 15:04:36;;;;;;;;;55.00;44.75;;;;;;;;5081816;27;45248;-81
2021/12/16 15:07:05;;;;;;;;;62.25;47.25;;;;;;;;5082019;27;45381;-81
2021/12/16 15:09:36;;;;;;;;;63.50;49.75;;;;;;;;5080297;28;46360;-80
2021/12/16 15:12:54;;;;;;;;;74.25;59.50;;;;;;;;5079863;28;47249;-80
